Ridgway, CO (81432)

6:26 AM MST on February 13, 2016 (GMT -0700)
APRSWXNET | | Change Station
CLOSE
Current Station
Personal Weather Station
Location: Ridgway, CO
Elevation: 6994 ft
Nearby Weather Stations

Elev 6994 ft 38.15 °N, 107.76 °W | Updated 37 minutes ago

Clear
Clear
16 °F
Feels Like 16 °F
N
1
Wind Variable Wind from West
Gusts 0.0 mph

Today
High -- | Low -- °F
--% Chance of Precip.
Yesterday
High -- | Low -- °F
Precip. -- in
Pressure 30.29 in
Visibility 10.0 miles
Clouds Clear
Windchill 16 °F
Dew Point 14 °F
Humidity 92%
Rainfall in
Snow Depth Not available.
7:04 AM 5:46 PM
Waxing Crescent, 30% visible
METAR KMTJ 131253Z AUTO 15006KT 10SM CLR M04/M07 A3030 RMK AO2 SLP256 T10391067
Pressure 30.29 in
Visibility 10.0 miles
Clouds Clear
Windchill 16 °F
Dew Point 14 °F
Humidity 92%
Rainfall in
Snow Depth Not available.
7:04 AM 5:46 PM
Waxing Crescent, 30% visible
METAR KMTJ 131253Z AUTO 15006KT 10SM CLR M04/M07 A3030 RMK AO2 SLP256 T10391067

10-Day Weather Forecast

Almanac

Astronomy

Feb. 13, 2016 Rise Set
Actual Time
Civil Twilight
Nautical Twilight
Astronomical Twilight
Moon
Length of Visible Light
Length of Day
Tomorrow will be .
, % of the Moon is Illuminated

Today's Extremes

State Highs State Lows

Community

WunderPhotos

Upload Photos

1,892,547 photos uploaded!

WunderBlog® & News

Nearby

Air Quality

  Air Quality AQ Index Pollutant
Not available.

Snow Depth

Station Depth Elevation

Earthquake Activity

City Distance Mag. Time & Date
Minimum magnitude displayed is 2.5.

Coastal Water Temperatures

Place Temperature

Stations

Nearby Weather Stations

Station Location Temp. Windchill Dew Point Humidity Wind Precip. Elev Updated Type
                   

Watches & Warnings

There are currently no watches in effect.